Time;durP1;ratioP1;P1;durP2;ratioP2;P2;SDS_P1;SDS_P2;PMS_P1;PMS_P2;Temp;Humidity;BMP_temperature;BMP_pressure;BME280_temperature;BME280_humidity;BME280_pressure;Samples;Min_cycle;Max_cycle;Signal;HPM_P1;HPM_P2
2022/08/22 00:01:48;;;;;;;3.80;1.90;;;23.50;63.50;;;;;;220835;1261;25434;-52
2022/08/22 00:07:48;;;;;;;3.80;2.00;;;23.50;63.40;;;;;;221512;1261;25245;-49
2022/08/22 00:13:06;;;;;;;3.10;1.90;;;23.60;63.70;;;;;;221260;1262;25386;-50
2022/08/22 00:18:27;;;;;;;3.80;2.40;;;23.60;63.80;;;;;;221380;1262;22544;-53
2022/08/22 00:23:54;;;;;;;4.40;2.30;;;23.50;63.50;;;;;;221494;1261;25349;-50
2022/08/22 00:29:07;;;;;;;4.90;1.80;;;23.50;63.20;;;;;;221400;1261;22559;-50
2022/08/22 00:34:21;;;;;;;5.40;1.70;;;23.50;63.60;;;;;;221456;1262;22767;-55
2022/08/22 00:39:29;;;;;;;5.00;2.00;;;23.50;63.90;;;;;;221058;1262;22565;-50
2022/08/22 00:45:03;;;;;;;3.40;1.60;;;23.40;64.00;;;;;;221097;1262;24375;-47
2022/08/22 00:50:23;;;;;;;3.90;1.80;;;23.40;63.90;;;;;;220955;1262;22577;-47
2022/08/22 00:55:45;;;;;;;3.20;1.60;;;23.40;63.90;;;;;;221212;1265;23361;-51
2022/08/22 01:01:00;;;;;;;2.60;1.70;;;23.50;63.90;;;;;;221506;1265;25286;-49
2022/08/22 01:06:19;;;;;;;4.30;1.70;;;23.40;64.00;;;;;;221044;1265;25323;-50
2022/08/22 01:11:57;;;;;;;3.90;1.60;;;23.40;64.60;;;;;;221022;1265;25519;-50
2022/08/22 01:17:14;;;;;;;7.70;1.70;;;23.40;64.30;;;;;;221214;1262;22557;-51
2022/08/22 01:22:54;;;;;;;4.00;1.60;;;23.30;64.00;;;;;;220942;1265;25356;-51
2022/08/22 01:28:19;;;;;;;4.20;1.50;;;23.30;64.30;;;;;;221285;1262;22607;-51
2022/08/22 01:34:02;;;;;;;2.50;1.40;;;23.30;64.10;;;;;;221063;1265;22580;-48
2022/08/22 01:39:23;;;;;;;2.40;1.40;;;23.30;64.10;;;;;;221619;1262;22626;-49
2022/08/22 01:44:36;;;;;;;3.30;1.40;;;23.30;64.00;;;;;;221473;1262;25375;-48
2022/08/22 01:49:54;;;;;;;2.70;1.30;;;23.20;64.80;;;;;;221171;1262;24346;-51
2022/08/22 01:55:09;;;;;;;3.10;1.60;;;23.20;64.00;;;;;;220975;1262;25309;-50
2022/08/22 02:00:16;;;;;;;2.50;1.50;;;23.20;64.10;;;;;;221338;1262;25309;-50
2022/08/22 02:05:26;;;;;;;2.20;1.20;;;23.20;64.00;;;;;;221541;1262;22958;-48
2022/08/22 02:10:53;;;;;;;2.50;1.40;;;23.20;64.00;;;;;;220982;1265;22571;-51
2022/08/22 02:16:34;;;;;;;4.70;1.50;;;23.20;64.00;;;;;;221043;1265;24424;-52
2022/08/22 02:22:04;;;;;;;3.60;1.70;;;23.20;63.90;;;;;;221246;1262;22547;-47
2022/08/22 02:27:41;;;;;;;2.00;1.20;;;23.20;63.90;;;;;;221160;1262;22617;-49
2022/08/22 02:33:07;;;;;;;3.90;1.60;;;23.20;64.00;;;;;;221175;1262;25398;-50
2022/08/22 02:38:24;;;;;;;3.50;1.10;;;23.10;63.90;;;;;;220983;1265;22554;-53
2022/08/22 02:43:45;;;;;;;3.00;1.30;;;23.10;63.90;;;;;;221102;1265;22675;-49
2022/08/22 02:49:04;;;;;;;5.70;1.30;;;23.10;63.90;;;;;;221335;1265;22553;-49
2022/08/22 02:54:19;;;;;;;3.20;1.40;;;23.10;63.90;;;;;;221144;1265;25367;-49
2022/08/22 02:59:31;;;;;;;4.90;1.70;;;23.10;64.40;;;;;;221108;1265;26490;-51
2022/08/22 03:04:33;;;;;;;3.60;1.50;;;23.00;64.20;;;;;;221235;1262;22681;-51
2022/08/22 03:09:43;;;;;;;3.10;1.40;;;23.00;63.80;;;;;;221238;1262;24402;-50
2022/08/22 03:15:09;;;;;;;3.00;1.40;;;23.00;63.90;;;;;;221102;1263;22534;-49
2022/08/22 03:20:19;;;;;;;3.80;1.60;;;23.00;63.90;;;;;;221575;1261;22694;-51
2022/08/22 03:25:39;;;;;;;3.40;1.70;;;23.00;63.80;;;;;;221604;1262;25474;-49
2022/08/22 03:30:54;;;;;;;3.20;1.40;;;23.00;63.30;;;;;;221546;1262;22545;-48
2022/08/22 03:36:08;;;;;;;4.00;1.40;;;23.00;63.60;;;;;;221108;1262;24398;-50
2022/08/22 03:41:30;;;;;;;4.20;1.40;;;23.00;63.50;;;;;;221673;1261;23581;-53
2022/08/22 03:46:57;;;;;;;3.00;1.40;;;23.00;63.50;;;;;;221451;1262;24293;-50
2022/08/22 03:52:05;;;;;;;3.70;1.50;;;23.00;63.50;;;;;;221454;1262;22592;-59
2022/08/22 03:57:07;;;;;;;2.50;1.40;;;22.90;63.50;;;;;;221326;1261;25544;-51
2022/08/22 04:02:19;;;;;;;3.50;1.40;;;22.90;63.50;;;;;;221520;1262;22547;-50
2022/08/22 04:08:09;;;;;;;2.50;1.20;;;22.90;63.50;;;;;;221241;1262;22773;-51
2022/08/22 04:13:39;;;;;;;3.30;1.30;;;22.90;63.40;;;;;;221169;1262;25369;-48
2022/08/22 04:19:19;;;;;;;3.30;1.40;;;22.90;63.30;;;;;;221604;1261;22550;-52
2022/08/22 04:24:24;;;;;;;3.10;1.30;;;22.90;63.30;;;;;;221253;1261;22682;-49
2022/08/22 04:29:36;;;;;;;3.60;1.30;;;22.90;63.20;;;;;;221519;1261;23874;-48
2022/08/22 04:35:07;;;;;;;4.00;1.50;;;22.90;63.60;;;;;;221436;1262;24249;-51
2022/08/22 04:40:22;;;;;;;4.10;1.50;;;22.80;63.30;;;;;;221349;1262;25305;-48
2022/08/22 04:45:31;;;;;;;4.30;1.50;;;22.80;63.40;;;;;;221388;1262;22535;-49
2022/08/22 04:50:47;;;;;;;3.40;1.20;;;22.80;63.40;;;;;;221101;1262;24379;-51
2022/08/22 04:56:10;;;;;;;3.20;1.40;;;22.90;63.40;;;;;;220508;1261;1270456;-49
2022/08/22 05:01:19;;;;;;;3.80;1.50;;;22.90;63.40;;;;;;221263;1262;24369;-49
2022/08/22 05:06:26;;;;;;;2.60;1.10;;;22.90;63.70;;;;;;221363;1262;23108;-50
2022/08/22 05:11:30;;;;;;;2.90;1.40;;;22.90;63.80;;;;;;221325;1262;22716;-51
2022/08/22 05:16:39;;;;;;;3.00;1.20;;;22.80;63.60;;;;;;221471;1262;25371;-50
2022/08/22 05:21:45;;;;;;;2.00;1.10;;;22.80;63.90;;;;;;221659;1262;24173;-50
2022/08/22 05:26:52;;;;;;;2.30;1.30;;;22.80;63.70;;;;;;221719;1262;22569;-50
2022/08/22 05:32:02;;;;;;;3.50;1.70;;;22.80;63.70;;;;;;221749;1262;25226;-50
2022/08/22 05:37:16;;;;;;;1.90;0.90;;;22.80;63.80;;;;;;221487;1262;25244;-50
2022/08/22 05:42:30;;;;;;;2.60;1.30;;;22.80;63.90;;;;;;221766;1262;22615;-54
2022/08/22 05:47:44;;;;;;;2.90;1.20;;;22.80;64.00;;;;;;221386;1262;24281;-51
2022/08/22 05:53:11;;;;;;;2.40;1.20;;;22.80;64.10;;;;;;221209;1262;24217;-49
2022/08/22 05:58:32;;;;;;;2.60;1.30;;;22.80;64.30;;;;;;221288;1262;22671;-52
2022/08/22 06:03:43;;;;;;;1.80;1.00;;;22.80;64.00;;;;;;221489;1262;22962;-49
2022/08/22 06:09:04;;;;;;;1.90;1.10;;;22.70;64.10;;;;;;221264;1262;25675;-50
2022/08/22 06:14:29;;;;;;;4.50;1.40;;;22.70;64.10;;;;;;221124;1265;25530;-50
2022/08/22 06:19:38;;;;;;;2.20;1.10;;;22.70;64.20;;;;;;221436;1262;22556;-49
2022/08/22 06:24:41;;;;;;;3.50;1.30;;;22.70;64.20;;;;;;221366;1265;24211;-49
2022/08/22 06:29:49;;;;;;;2.20;1.10;;;22.70;64.40;;;;;;221604;1262;22565;-52
2022/08/22 06:34:59;;;;;;;4.50;0.90;;;22.70;64.00;;;;;;221277;1262;25445;-50
2022/08/22 06:40:09;;;;;;;4.40;1.20;;;22.70;64.00;;;;;;221358;1263;24399;-49
2022/08/22 06:45:31;;;;;;;3.60;1.20;;;22.70;64.00;;;;;;221320;1262;25551;-50
2022/08/22 06:50:36;;;;;;;3.30;1.40;;;22.60;64.10;;;;;;221553;1261;22557;-52
2022/08/22 06:55:45;;;;;;;1.90;1.00;;;22.60;64.10;;;;;;221360;1262;24289;-49
2022/08/22 07:00:54;;;;;;;2.00;1.10;;;22.60;64.20;;;;;;221362;1262;23597;-50
2022/08/22 07:06:30;;;;;;;2.70;1.20;;;22.60;64.20;;;;;;221266;1262;22553;-51
2022/08/22 07:11:38;;;;;;;2.40;1.30;;;22.60;64.20;;;;;;221354;1262;23154;-49
2022/08/22 07:16:50;;;;;;;2.20;1.00;;;22.60;64.20;;;;;;221548;1261;23019;-49
2022/08/22 07:21:54;;;;;;;2.30;1.10;;;22.70;64.40;;;;;;221312;1262;22559;-49
2022/08/22 07:27:29;;;;;;;5.10;1.20;;;22.70;64.40;;;;;;221267;1261;24299;-50
2022/08/22 07:32:58;;;;;;;2.80;0.90;;;22.70;64.40;;;;;;221459;1262;25999;-48
2022/08/22 07:38:42;;;;;;;6.10;1.50;;;22.60;64.80;;;;;;221128;1262;24275;-50
2022/08/22 07:43:55;;;;;;;4.60;1.20;;;22.70;64.60;;;;;;221888;1262;22607;-53
2022/08/22 07:49:16;;;;;;;5.90;1.40;;;22.80;64.10;;;;;;221283;1262;24212;-54
2022/08/22 07:54:25;;;;;;;5.10;1.00;;;22.90;64.30;;;;;;221401;1262;25321;-54
2022/08/22 07:59:33;;;;;;;3.30;1.10;;;23.00;63.70;;;;;;221585;1262;24205;-54
2022/08/22 08:04:43;;;;;;;4.40;1.20;;;23.10;63.40;;;;;;221291;1262;22707;-57
2022/08/22 08:10:00;;;;;;;5.70;1.30;;;23.00;63.40;;;;;;221375;1262;23239;-51
2022/08/22 08:15:14;;;;;;;3.00;1.00;;;23.10;63.40;;;;;;221555;1262;22649;-52
2022/08/22 08:20:21;;;;;;;2.20;1.10;;;23.10;63.40;;;;;;221099;1262;22876;-53
2022/08/22 08:25:29;;;;;;;2.50;1.00;;;23.10;63.30;;;;;;221313;1265;22547;-53
2022/08/22 08:30:32;;;;;;;5.70;1.50;;;23.10;63.60;;;;;;220680;1264;23913;-52
2022/08/22 08:35:40;;;;;;;3.80;1.50;;;23.10;63.70;;;;;;221066;1263;26623;-49
2022/08/22 08:42:00;;;;;;;4.00;1.10;;;23.10;63.90;;;;;;221109;1262;23899;-53
2022/08/22 08:47:21;;;;;;;4.90;1.20;;;23.20;64.20;;;;;;220289;1271;25345;-52
2022/08/22 08:53:14;;;;;;;5.80;1.30;;;23.20;64.40;;;;;;221584;1262;24299;-53
2022/08/22 08:58:47;;;;;;;4.00;1.00;;;23.20;63.80;;;;;;220284;1268;22596;-51
2022/08/22 09:04:45;;;;;;;3.80;1.10;;;23.30;64.20;;;;;;221209;1262;25302;-52
2022/08/22 09:09:48;;;;;;;4.90;1.10;;;23.30;64.30;;;;;;219859;1271;22678;-54
2022/08/22 09:15:14;;;;;;;5.60;1.00;;;23.30;64.30;;;;;;220232;1265;25450;-53
2022/08/22 09:20:46;;;;;;;3.30;1.10;;;23.30;64.40;;;;;;221331;1262;22532;-53
2022/08/22 09:26:13;;;;;;;4.20;1.30;;;23.30;65.00;;;;;;221321;1262;23185;-52
2022/08/22 09:31:33;;;;;;;4.00;1.20;;;23.30;64.30;;;;;;221438;1261;24192;-52
2022/08/22 09:37:06;;;;;;;5.70;1.80;;;23.30;64.60;;;;;;221439;1262;22541;-50
2022/08/22 09:42:38;;;;;;;6.80;1.20;;;23.30;64.80;;;;;;221142;1262;22726;-54
2022/08/22 09:48:17;;;;;;;10.10;1.40;;;23.40;64.80;;;;;;221432;1262;24236;-53
2022/08/22 09:53:39;;;;;;;5.10;1.00;;;23.40;64.40;;;;;;221691;1262;23937;-54
2022/08/22 09:59:03;;;;;;;5.20;1.20;;;23.40;65.00;;;;;;221648;1262;23029;-55
2022/08/22 10:04:28;;;;;;;3.50;1.10;;;23.40;64.80;;;;;;221541;1262;26544;-51
2022/08/22 10:09:46;;;;;;;6.30;1.30;;;23.40;64.80;;;;;;221173;1265;22811;-56
2022/08/22 10:15:14;;;;;;;9.70;1.10;;;23.40;64.60;;;;;;221156;1264;25475;-50
2022/08/22 10:20:44;;;;;;;4.50;1.40;;;23.50;64.20;;;;;;221341;1262;25247;-48
2022/08/22 10:25:56;;;;;;;4.20;1.10;;;23.50;64.60;;;;;;221465;1262;22531;-52
2022/08/22 10:31:18;;;;;;;3.80;0.90;;;23.50;65.30;;;;;;221322;1262;22531;-51
2022/08/22 10:36:51;;;;;;;5.90;1.40;;;23.50;64.30;;;;;;221345;1265;24304;-52
2022/08/22 10:42:27;;;;;;;4.40;1.20;;;23.50;64.50;;;;;;221292;1262;25250;-52
2022/08/22 10:47:57;;;;;;;4.20;1.20;;;23.50;64.80;;;;;;221139;1265;24365;-49
2022/08/22 10:58:58;;;;;;;5.30;1.20;;;23.50;64.40;;;;;;221281;1262;22560;-51
2022/08/22 11:04:31;;;;;;;2.00;0.90;;;23.50;64.50;;;;;;221630;1261;24306;-53
2022/08/22 11:09:42;;;;;;;6.10;1.40;;;23.60;64.60;;;;;;221319;1261;22635;-55
2022/08/22 11:14:51;;;;;;;2.90;1.20;;;23.60;65.00;;;;;;221473;1262;25307;-52
2022/08/22 11:20:07;;;;;;;9.00;2.30;;;23.60;64.70;;;;;;221434;1262;22745;-55
2022/08/22 11:25:43;;;;;;;7.80;1.50;;;23.60;64.70;;;;;;221385;1262;22691;-52
2022/08/22 11:31:16;;;;;;;3.00;1.10;;;23.60;64.70;;;;;;221372;1262;22565;-53
2022/08/22 11:36:26;;;;;;;6.10;1.50;;;23.60;65.00;;;;;;221646;1262;25251;-52
2022/08/22 11:42:00;;;;;;;4.60;1.30;;;23.60;65.30;;;;;;221349;1262;24344;-52
2022/08/22 11:47:16;;;;;;;6.50;1.10;;;23.60;64.70;;;;;;221365;1262;25290;-52
2022/08/22 11:52:49;;;;;;;6.30;1.40;;;23.60;65.00;;;;;;221420;1262;22569;-54
2022/08/22 11:58:01;;;;;;;3.60;1.20;;;23.70;65.10;;;;;;221338;1262;22556;-53
2022/08/22 12:03:28;;;;;;;7.50;1.60;;;23.70;64.70;;;;;;221358;1262;25357;-52
2022/08/22 12:08:45;;;;;;;5.60;1.30;;;23.70;65.30;;;;;;221376;1262;23133;-54
2022/08/22 12:14:18;;;;;;;7.00;1.50;;;23.70;65.90;;;;;;221320;1262;25360;-54
2022/08/22 12:20:04;;;;;;;6.80;1.50;;;23.70;65.60;;;;;;221039;1262;24230;-54
2022/08/22 12:25:49;;;;;;;12.00;1.80;;;23.70;65.70;;;;;;220266;1268;25364;-54
2022/08/22 12:31:30;;;;;;;9.00;1.30;;;23.70;66.30;;;;;;221376;1262;25488;-53
2022/08/22 12:36:52;;;;;;;6.40;1.40;;;23.70;66.10;;;;;;221275;1262;25398;-51
2022/08/22 12:42:23;;;;;;;8.70;1.50;;;23.70;66.40;;;;;;221216;1265;22705;-56
2022/08/22 12:47:55;;;;;;;4.70;1.50;;;23.80;65.80;;;;;;221173;1265;22547;-54
2022/08/22 12:53:12;;;;;;;13.60;1.30;;;23.80;66.10;;;;;;221079;1262;22552;-52
2022/08/22 12:58:22;;;;;;;9.60;1.60;;;23.80;66.40;;;;;;221297;1262;22535;-52
2022/08/22 13:03:50;;;;;;;7.00;1.30;;;23.80;65.50;;;;;;221181;1262;25706;-52
2022/08/22 13:08:56;;;;;;;7.80;1.30;;;23.80;66.20;;;;;;221668;1262;22637;-56
2022/08/22 13:14:01;;;;;;;7.80;1.30;;;23.80;66.40;;;;;;221403;1263;24441;-52
2022/08/22 13:19:11;;;;;;;5.70;1.50;;;23.80;66.80;;;;;;221396;1262;24374;-51
2022/08/22 13:24:24;;;;;;;6.90;1.40;;;23.80;66.60;;;;;;221348;1261;22545;-53
2022/08/22 13:29:51;;;;;;;14.30;1.80;;;23.80;66.20;;;;;;221480;1262;22574;-52
2022/08/22 13:34:59;;;;;;;7.40;1.80;;;23.80;65.90;;;;;;221285;1262;22688;-51
2022/08/22 13:40:07;;;;;;;9.10;2.30;;;23.80;66.30;;;;;;221452;1263;25371;-51
2022/08/22 13:45:20;;;;;;;4.30;1.50;;;23.80;66.60;;;;;;221255;1265;24277;-53
2022/08/22 13:50:28;;;;;;;2.90;1.30;;;23.80;65.60;;;;;;221337;1265;22562;-54
2022/08/22 13:56:00;;;;;;;8.90;1.60;;;23.80;65.50;;;;;;221181;1262;25513;-54
2022/08/22 14:01:17;;;;;;;4.80;1.40;;;23.90;66.10;;;;;;221096;1265;23369;-53
2022/08/22 14:06:36;;;;;;;4.70;1.50;;;23.80;65.60;;;;;;221214;1265;22569;-54
2022/08/22 14:11:52;;;;;;;6.30;1.40;;;23.90;65.40;;;;;;221259;1262;22544;-51
2022/08/22 14:16:58;;;;;;;8.80;1.50;;;23.90;66.10;;;;;;221312;1262;24211;-51
2022/08/22 14:22:11;;;;;;;9.90;1.70;;;23.90;65.40;;;;;;221217;1263;22732;-52
2022/08/22 14:27:56;;;;;;;6.70;1.80;;;23.90;65.90;;;;;;221721;1263;24379;-50
2022/08/22 14:33:22;;;;;;;5.10;1.80;;;23.90;65.50;;;;;;221610;1262;22756;-52
2022/08/22 14:38:31;;;;;;;4.00;1.80;;;23.90;65.60;;;;;;221287;1265;26212;-54
2022/08/22 14:44:04;;;;;;;6.20;2.20;;;23.90;66.30;;;;;;221366;1265;22538;-52
2022/08/22 14:49:17;;;;;;;9.70;2.60;;;23.90;66.20;;;;;;221340;1265;24275;-52
2022/08/22 14:54:22;;;;;;;8.20;2.80;;;23.90;66.20;;;;;;221285;1265;26974;-53
2022/08/22 14:59:45;;;;;;;10.70;3.50;;;23.90;68.20;;;;;;220950;1265;24145;-55
2022/08/22 15:04:52;;;;;;;;;;;23.90;68.90;;;;;;221231;1262;24201;-50
2022/08/22 15:09:57;;;;;;;6.00;2.90;;;24.00;67.90;;;;;;221167;1262;22522;-51
2022/08/22 15:15:04;;;;;;;11.60;3.00;;;24.00;68.30;;;;;;221268;1262;22548;-53
2022/08/22 15:20:35;;;;;;;7.10;2.90;;;24.10;68.20;;;;;;220979;1265;22841;-49
2022/08/22 15:26:06;;;;;;;6.80;2.70;;;24.10;68.20;;;;;;220800;1265;22524;-51
2022/08/22 15:31:18;;;;;;;8.00;3.00;;;24.10;69.20;;;;;;221123;1265;24283;-52
2022/08/22 15:36:25;;;;;;;5.60;2.70;;;24.10;68.90;;;;;;221596;1262;22554;-50
2022/08/22 15:41:33;;;;;;;7.50;3.20;;;24.00;68.50;;;;;;221101;1265;24286;-51
2022/08/22 15:46:43;;;;;;;;;;;24.00;68.30;;;;;;221189;1265;24378;-50
2022/08/22 15:52:00;;;;;;;12.70;3.20;;;24.10;68.80;;;;;;221061;1265;24306;-53
2022/08/22 15:57:08;;;;;;;6.40;3.00;;;24.10;68.80;;;;;;221115;1265;24338;-51
2022/08/22 16:02:26;;;;;;;7.70;3.10;;;24.10;68.50;;;;;;221280;1262;22547;-51
2022/08/22 16:07:42;;;;;;;12.70;3.40;;;24.10;67.90;;;;;;220801;1265;22568;-51
2022/08/22 16:13:24;;;;;;;15.30;3.90;;;24.10;67.90;;;;;;222271;1264;25345;-47
2022/08/22 16:18:33;;;;;;;10.60;3.80;;;24.10;68.10;;;;;;221114;1265;25301;-50
2022/08/22 16:23:47;;;;;;;8.20;4.20;;;24.10;68.30;;;;;;221177;1265;22690;-53
2022/08/22 16:29:02;;;;;;;11.80;3.80;;;24.10;67.90;;;;;;221367;1265;25669;-52
2022/08/22 16:34:16;;;;;;;7.50;3.80;;;24.30;68.50;;;;;;221113;1266;23960;-50
2022/08/22 16:39:19;;;;;;;12.00;4.00;;;24.30;68.00;;;;;;220954;1265;24286;-54
2022/08/22 16:44:30;;;;;;;10.20;4.20;;;24.20;68.30;;;;;;221190;1265;24284;-48
2022/08/22 16:49:51;;;;;;;9.60;4.20;;;24.20;69.00;;;;;;221374;1265;22595;-50
2022/08/22 16:55:29;;;;;;;9.90;4.40;;;24.30;69.10;;;;;;220021;1265;1367501;-50
2022/08/22 17:00:40;;;;;;;8.70;4.30;;;24.20;68.70;;;;;;221205;1265;22652;-49
2022/08/22 17:06:03;;;;;;;8.60;4.10;;;24.20;68.70;;;;;;221401;1265;22566;-52
2022/08/22 17:11:46;;;;;;;9.20;3.80;;;24.20;68.50;;;;;;221417;1261;25360;-50
2022/08/22 17:17:32;;;;;;;8.50;4.10;;;24.30;68.60;;;;;;221438;1262;22543;-53
2022/08/22 17:23:27;;;;;;;10.10;4.30;;;24.30;69.00;;;;;;220723;1265;24364;-47
2022/08/22 17:28:53;;;;;;;12.20;4.50;;;24.30;69.20;;;;;;220576;1265;24317;-52
2022/08/22 17:34:30;;;;;;;8.30;4.00;;;24.40;68.50;;;;;;220936;1265;22617;-50
2022/08/22 17:39:59;;;;;;;15.00;4.80;;;24.30;68.50;;;;;;220941;1265;24212;-52
2022/08/22 17:45:18;;;;;;;8.90;4.60;;;24.40;69.10;;;;;;221414;1265;24059;-50
2022/08/22 17:50:39;;;;;;;6.20;4.00;;;24.30;68.90;;;;;;221057;1265;25831;-52
2022/08/22 17:56:13;;;;;;;10.50;4.50;;;24.30;68.80;;;;;;221110;1264;22563;-50
2022/08/22 18:01:54;;;;;;;11.50;5.30;;;24.30;68.30;;;;;;221274;1265;24212;-52
2022/08/22 18:07:29;;;;;;;8.50;4.30;;;24.30;68.80;;;;;;221443;1261;22550;-48
2022/08/22 18:12:48;;;;;;;8.70;4.40;;;24.30;68.20;;;;;;221388;1261;25500;-54
2022/08/22 18:18:07;;;;;;;8.60;5.20;;;24.30;68.00;;;;;;221452;1262;24620;-54
2022/08/22 18:23:21;;;;;;;17.40;5.20;;;24.30;68.00;;;;;;221453;1262;22576;-54
2022/08/22 18:28:49;;;;;;;18.90;4.90;;;24.30;69.70;;;;;;221170;1265;25961;-55
2022/08/22 18:34:01;;;;;;;13.70;5.10;;;24.50;68.70;;;;;;221309;1265;22564;-50
2022/08/22 18:39:44;;;;;;;18.10;6.00;;;24.40;70.50;;;;;;221288;1262;22543;-52
2022/08/22 18:44:49;;;;;;;12.80;5.00;;;24.40;71.00;;;;;;221584;1264;22525;-53
2022/08/22 18:49:54;;;;;;;12.40;5.20;;;24.40;69.80;;;;;;221252;1261;24446;-51
2022/08/22 18:55:16;;;;;;;7.70;4.60;;;24.40;69.40;;;;;;220964;1262;22699;-52
2022/08/22 19:00:57;;;;;;;10.60;4.70;;;24.40;71.00;;;;;;221366;1262;22617;-51
2022/08/22 19:06:31;;;;;;;9.70;4.90;;;24.40;70.90;;;;;;221304;1262;22564;-51
2022/08/22 19:11:48;;;;;;;9.00;4.30;;;24.40;71.00;;;;;;221433;1265;22711;-54
2022/08/22 19:17:12;;;;;;;8.70;4.50;;;24.50;71.20;;;;;;221430;1262;22522;-51
2022/08/22 19:22:32;;;;;;;8.00;4.40;;;24.50;71.20;;;;;;221594;1261;22625;-51
2022/08/22 19:28:10;;;;;;;10.60;4.40;;;24.40;70.60;;;;;;221450;1262;22548;-51
2022/08/22 19:33:37;;;;;;;5.50;3.70;;;24.40;70.40;;;;;;221282;1262;25314;-51
2022/08/22 19:38:56;;;;;;;6.30;3.60;;;24.40;70.20;;;;;;221557;1262;24207;-51
2022/08/22 19:43:59;;;;;;;9.90;4.00;;;24.40;69.90;;;;;;221317;1263;25355;-54
2022/08/22 19:49:05;;;;;;;6.30;3.90;;;24.50;72.80;;;;;;221448;1262;25242;-52
2022/08/22 19:54:21;;;;;;;10.40;3.60;;;24.40;71.40;;;;;;221291;1262;25428;-53
2022/08/22 19:59:48;;;;;;;6.60;3.80;;;24.50;71.00;;;;;;221187;1262;24227;-54
2022/08/22 20:05:11;;;;;;;7.30;3.70;;;24.50;70.30;;;;;;221311;1262;25595;-56
2022/08/22 20:10:34;;;;;;;8.50;3.80;;;24.50;70.90;;;;;;220927;1265;25452;-53
2022/08/22 20:16:12;;;;;;;12.00;3.80;;;24.40;71.50;;;;;;221110;1265;24319;-51
2022/08/22 20:21:49;;;;;;;20.40;4.10;;;24.40;70.70;;;;;;220988;1265;22833;-48
2022/08/22 20:26:57;;;;;;;11.20;4.10;;;24.40;70.50;;;;;;220862;1265;22671;-52
2022/08/22 20:32:19;;;;;;;17.30;4.60;;;24.50;70.90;;;;;;221090;1262;24266;-53
2022/08/22 20:37:33;;;;;;;18.70;4.00;;;24.50;70.50;;;;;;221208;1265;24259;-53
2022/08/22 20:42:59;;;;;;;16.50;4.30;;;24.50;70.20;;;;;;220941;1265;24255;-55
2022/08/22 20:48:06;;;;;;;14.60;3.60;;;24.40;70.00;;;;;;221069;1262;24219;-52
2022/08/22 20:53:20;;;;;;;17.80;4.40;;;24.40;70.30;;;;;;220876;1265;22535;-51
2022/08/22 20:58:27;;;;;;;11.90;3.70;;;24.40;70.40;;;;;;220932;1262;23013;-52
2022/08/22 21:03:43;;;;;;;14.20;3.90;;;24.40;69.70;;;;;;221735;1261;22610;-53
2022/08/22 21:11:38;;;;;;;14.50;3.60;;;24.40;70.00;;;;;;221423;1262;22566;-53
2022/08/22 21:14:21;;;;;;;11.20;3.50;;;24.40;69.60;;;;;;221205;1261;22647;-54
2022/08/22 21:19:26;;;;;;;8.30;3.00;;;24.40;69.60;;;;;;221018;1265;22800;-53
2022/08/22 21:24:29;;;;;;;7.60;3.10;;;24.40;69.70;;;;;;221175;1264;22651;-55
2022/08/22 21:29:33;;;;;;;10.00;3.60;;;24.40;69.50;;;;;;221489;1262;25436;-51
2022/08/22 21:34:46;;;;;;;12.40;3.20;;;24.40;72.00;;;;;;221095;1265;22557;-53
2022/08/22 21:40:27;;;;;;;11.10;3.50;;;24.40;71.80;;;;;;220843;1265;22811;-56
2022/08/22 21:45:41;;;;;;;10.20;3.60;;;24.50;72.20;;;;;;221559;1261;24297;-52
2022/08/22 21:50:44;;;;;;;9.70;3.20;;;24.50;71.20;;;;;;221608;1262;24320;-48
2022/08/22 21:56:12;;;;;;;12.10;3.40;;;24.40;70.90;;;;;;221498;1262;24280;-49
2022/08/22 22:01:31;;;;;;;8.10;2.70;;;24.40;70.90;;;;;;221327;1262;22547;-52
2022/08/22 22:06:34;;;;;;;8.50;3.10;;;24.30;71.50;;;;;;221202;1262;24070;-49
2022/08/22 22:11:38;;;;;;;6.70;2.80;;;24.30;71.00;;;;;;221210;1262;25302;-51
2022/08/22 22:16:41;;;;;;;10.50;3.10;;;24.40;70.60;;;;;;221661;1262;22566;-50
2022/08/22 22:21:43;;;;;;;8.70;3.20;;;24.30;70.60;;;;;;221399;1262;22782;-50
2022/08/22 22:26:49;;;;;;;7.90;3.40;;;24.30;70.80;;;;;;221587;1262;25226;-51
2022/08/22 22:31:56;;;;;;;9.10;3.10;;;24.30;70.50;;;;;;221589;1261;22729;-49
2022/08/22 22:37:14;;;;;;;7.10;3.00;;;24.30;70.50;;;;;;221462;1261;22537;-52
2022/08/22 22:42:31;;;;;;;5.40;2.80;;;24.30;70.50;;;;;;221319;1262;22566;-50
2022/08/22 22:47:35;;;;;;;6.40;3.10;;;24.30;70.50;;;;;;221404;1262;22558;-50
2022/08/22 22:52:38;;;;;;;7.30;2.90;;;24.30;70.80;;;;;;221314;1265;23937;-51
2022/08/22 22:57:42;;;;;;;7.00;2.90;;;24.30;70.70;;;;;;221216;1262;24299;-51
2022/08/22 23:02:47;;;;;;;4.80;2.70;;;24.30;70.50;;;;;;221446;1262;25340;-51
2022/08/22 23:07:52;;;;;;;4.40;2.60;;;24.30;70.70;;;;;;221372;1261;24293;-48
2022/08/22 23:12:55;;;;;;;5.10;2.70;;;24.30;70.70;;;;;;221468;1261;24271;-52
2022/08/22 23:17:58;;;;;;;4.80;2.30;;;24.30;70.90;;;;;;221460;1261;24262;-50
2022/08/22 23:23:02;;;;;;;6.70;2.60;;;24.30;70.50;;;;;;221526;1262;24407;-52
2022/08/22 23:28:04;;;;;;;5.00;2.80;;;24.30;70.50;;;;;;221273;1262;24292;-50
2022/08/22 23:33:06;;;;;;;9.10;3.30;;;24.30;70.50;;;;;;221257;1262;22532;-48
2022/08/22 23:38:08;;;;;;;4.60;2.60;;;24.20;70.60;;;;;;221282;1262;25654;-52
2022/08/22 23:43:11;;;;;;;6.20;2.80;;;24.30;70.60;;;;;;221199;1265;22528;-51
2022/08/22 23:48:15;;;;;;;9.00;2.60;;;24.30;70.30;;;;;;221483;1265;24510;-50
2022/08/22 23:53:21;;;;;;;5.10;2.40;;;24.30;71.00;;;;;;221061;1262;23972;-49
2022/08/22 23:58:23;;;;;;;5.20;2.60;;;24.30;71.00;;;;;;221495;1261;22567;-50
